sensor_id;sensor_type;location;lat;lon;timestamp;P1;durP1;ratioP1;P2;durP2;ratioP2
57313;SDS011;53202;50.976;18.216;2023-12-29T00:00:12;64.60;;;33.40;;
57313;SDS011;53202;50.976;18.216;2023-12-29T00:01:13;67.70;;;32.10;;
57313;SDS011;53202;50.976;18.216;2023-12-29T00:02:15;64.40;;;32.30;;
57313;SDS011;53202;50.976;18.216;2023-12-29T00:03:16;79.20;;;34.40;;
57313;SDS011;53202;50.976;18.216;2023-12-29T00:04:17;62.10;;;32.80;;
57313;SDS011;53202;50.976;18.216;2023-12-29T00:05:18;70.40;;;34.30;;
57313;SDS011;53202;50.976;18.216;2023-12-29T00:06:19;67.10;;;31.80;;
57313;SDS011;53202;50.976;18.216;2023-12-29T00:07:20;60.30;;;29.20;;
57313;SDS011;53202;50.976;18.216;2023-12-29T00:08:21;73.80;;;33.30;;
57313;SDS011;53202;50.976;18.216;2023-12-29T00:09:22;60.30;;;31.20;;
57313;SDS011;53202;50.976;18.216;2023-12-29T00:10:23;68.40;;;32.90;;
57313;SDS011;53202;50.976;18.216;2023-12-29T00:11:24;55.40;;;32.10;;
57313;SDS011;53202;50.976;18.216;2023-12-29T00:12:25;63.60;;;30.10;;
57313;SDS011;53202;50.976;18.216;2023-12-29T00:13:26;52.90;;;29.50;;
57313;SDS011;53202;50.976;18.216;2023-12-29T00:14:27;54.80;;;29.70;;
57313;SDS011;53202;50.976;18.216;2023-12-29T00:15:28;51.10;;;29.30;;
57313;SDS011;53202;50.976;18.216;2023-12-29T00:16:29;52.20;;;26.80;;
57313;SDS011;53202;50.976;18.216;2023-12-29T00:17:30;46.50;;;27.40;;
57313;SDS011;53202;50.976;18.216;2023-12-29T00:18:32;63.50;;;30.60;;
57313;SDS011;53202;50.976;18.216;2023-12-29T00:19:33;42.10;;;25.80;;
57313;SDS011;53202;50.976;18.216;2023-12-29T00:20:34;45.10;;;25.80;;
57313;SDS011;53202;50.976;18.216;2023-12-29T00:21:37;48.80;;;27.10;;
57313;SDS011;53202;50.976;18.216;2023-12-29T00:22:38;47.90;;;26.90;;
57313;SDS011;53202;50.976;18.216;2023-12-29T00:23:39;48.90;;;27.00;;
57313;SDS011;53202;50.976;18.216;2023-12-29T00:24:40;51.10;;;29.00;;
57313;SDS011;53202;50.976;18.216;2023-12-29T00:25:41;51.30;;;28.80;;
57313;SDS011;53202;50.976;18.216;2023-12-29T00:26:43;61.00;;;28.40;;
57313;SDS011;53202;50.976;18.216;2023-12-29T00:27:44;53.80;;;27.90;;
57313;SDS011;53202;50.976;18.216;2023-12-29T00:28:45;55.70;;;28.40;;
57313;SDS011;53202;50.976;18.216;2023-12-29T00:29:46;57.10;;;30.40;;
57313;SDS011;53202;50.976;18.216;2023-12-29T00:30:47;48.20;;;27.80;;
57313;SDS011;53202;50.976;18.216;2023-12-29T00:31:48;57.60;;;28.60;;
57313;SDS011;53202;50.976;18.216;2023-12-29T00:32:51;57.10;;;28.70;;
57313;SDS011;53202;50.976;18.216;2023-12-29T00:33:52;52.20;;;27.30;;
57313;SDS011;53202;50.976;18.216;2023-12-29T00:34:54;50.20;;;28.80;;
57313;SDS011;53202;50.976;18.216;2023-12-29T00:35:55;50.00;;;29.30;;
57313;SDS011;53202;50.976;18.216;2023-12-29T00:36:56;55.20;;;28.00;;
57313;SDS011;53202;50.976;18.216;2023-12-29T00:37:57;58.10;;;28.80;;
57313;SDS011;53202;50.976;18.216;2023-12-29T00:38:58;44.60;;;26.20;;
57313;SDS011;53202;50.976;18.216;2023-12-29T00:39:59;43.20;;;26.20;;
57313;SDS011;53202;50.976;18.216;2023-12-29T00:41:00;56.60;;;27.50;;
57313;SDS011;53202;50.976;18.216;2023-12-29T00:42:00;44.10;;;25.30;;
57313;SDS011;53202;50.976;18.216;2023-12-29T00:43:02;41.50;;;25.90;;
57313;SDS011;53202;50.976;18.216;2023-12-29T00:44:03;44.30;;;25.60;;
57313;SDS011;53202;50.976;18.216;2023-12-29T00:45:04;40.90;;;25.10;;
57313;SDS011;53202;50.976;18.216;2023-12-29T00:46:05;43.10;;;25.20;;
57313;SDS011;53202;50.976;18.216;2023-12-29T00:47:06;54.20;;;27.30;;
57313;SDS011;53202;50.976;18.216;2023-12-29T00:48:07;47.30;;;25.90;;
57313;SDS011;53202;50.976;18.216;2023-12-29T00:49:10;43.40;;;25.40;;
57313;SDS011;53202;50.976;18.216;2023-12-29T00:50:11;45.50;;;25.00;;
57313;SDS011;53202;50.976;18.216;2023-12-29T00:51:12;46.20;;;26.50;;
57313;SDS011;53202;50.976;18.216;2023-12-29T00:52:13;47.80;;;26.10;;
57313;SDS011;53202;50.976;18.216;2023-12-29T00:53:14;46.90;;;26.70;;
57313;SDS011;53202;50.976;18.216;2023-12-29T00:54:15;46.50;;;26.20;;
57313;SDS011;53202;50.976;18.216;2023-12-29T00:55:17;51.60;;;26.70;;
57313;SDS011;53202;50.976;18.216;2023-12-29T00:56:18;46.00;;;25.60;;
57313;SDS011;53202;50.976;18.216;2023-12-29T00:57:19;46.40;;;25.70;;
57313;SDS011;53202;50.976;18.216;2023-12-29T00:58:20;46.90;;;25.10;;
57313;SDS011;53202;50.976;18.216;2023-12-29T00:59:21;36.90;;;24.10;;
57313;SDS011;53202;50.976;18.216;2023-12-29T01:00:22;42.70;;;26.60;;
57313;SDS011;53202;50.976;18.216;2023-12-29T01:01:23;43.50;;;24.20;;
57313;SDS011;53202;50.976;18.216;2023-12-29T01:02:24;44.60;;;26.40;;
57313;SDS011;53202;50.976;18.216;2023-12-29T01:54:37;36.80;;;19.40;;
57313;SDS011;53202;50.976;18.216;2023-12-29T01:55:40;31.80;;;19.30;;
57313;SDS011;53202;50.976;18.216;2023-12-29T01:56:42;30.20;;;20.00;;
57313;SDS011;53202;50.976;18.216;2023-12-29T01:57:43;32.00;;;18.70;;
57313;SDS011;53202;50.976;18.216;2023-12-29T01:58:44;36.20;;;20.30;;
57313;SDS011;53202;50.976;18.216;2023-12-29T01:59:46;37.50;;;21.10;;
57313;SDS011;53202;50.976;18.216;2023-12-29T02:00:49;29.40;;;18.10;;
57313;SDS011;53202;50.976;18.216;2023-12-29T02:01:50;30.40;;;18.60;;
57313;SDS011;53202;50.976;18.216;2023-12-29T02:02:51;32.00;;;19.10;;
57313;SDS011;53202;50.976;18.216;2023-12-29T02:03:52;26.40;;;16.70;;
57313;SDS011;53202;50.976;18.216;2023-12-29T02:04:53;30.30;;;18.10;;
57313;SDS011;53202;50.976;18.216;2023-12-29T02:05:57;30.90;;;17.60;;
57313;SDS011;53202;50.976;18.216;2023-12-29T02:06:58;25.30;;;16.20;;
57313;SDS011;53202;50.976;18.216;2023-12-29T02:07:59;31.70;;;19.10;;
57313;SDS011;53202;50.976;18.216;2023-12-29T02:09:01;37.40;;;18.30;;
57313;SDS011;53202;50.976;18.216;2023-12-29T02:10:04;30.90;;;17.60;;
57313;SDS011;53202;50.976;18.216;2023-12-29T02:11:05;31.20;;;19.10;;
57313;SDS011;53202;50.976;18.216;2023-12-29T02:12:06;32.50;;;19.00;;
57313;SDS011;53202;50.976;18.216;2023-12-29T02:13:07;26.20;;;16.70;;
57313;SDS011;53202;50.976;18.216;2023-12-29T02:14:08;32.50;;;17.90;;
57313;SDS011;53202;50.976;18.216;2023-12-29T02:15:09;34.70;;;19.40;;
57313;SDS011;53202;50.976;18.216;2023-12-29T02:16:22;28.90;;;17.60;;
57313;SDS011;53202;50.976;18.216;2023-12-29T02:17:38;30.40;;;18.60;;
57313;SDS011;53202;50.976;18.216;2023-12-29T02:18:41;32.50;;;17.60;;
57313;SDS011;53202;50.976;18.216;2023-12-29T02:19:44;24.90;;;15.90;;
57313;SDS011;53202;50.976;18.216;2023-12-29T02:20:47;28.50;;;17.30;;
57313;SDS011;53202;50.976;18.216;2023-12-29T02:21:48;30.60;;;19.90;;
57313;SDS011;53202;50.976;18.216;2023-12-29T02:22:48;34.30;;;18.30;;
57313;SDS011;53202;50.976;18.216;2023-12-29T02:23:49;25.30;;;20.00;;
57313;SDS011;53202;50.976;18.216;2023-12-29T02:24:50;32.20;;;19.70;;
57313;SDS011;53202;50.976;18.216;2023-12-29T02:25:51;30.30;;;18.80;;
57313;SDS011;53202;50.976;18.216;2023-12-29T02:26:57;30.80;;;18.50;;
57313;SDS011;53202;50.976;18.216;2023-12-29T02:28:10;32.70;;;20.00;;
57313;SDS011;53202;50.976;18.216;2023-12-29T02:29:30;34.20;;;21.20;;
57313;SDS011;53202;50.976;18.216;2023-12-29T02:30:33;31.90;;;20.20;;
57313;SDS011;53202;50.976;18.216;2023-12-29T02:31:39;40.10;;;20.90;;
57313;SDS011;53202;50.976;18.216;2023-12-29T02:32:42;33.50;;;20.70;;
57313;SDS011;53202;50.976;18.216;2023-12-29T02:33:43;34.20;;;20.90;;
57313;SDS011;53202;50.976;18.216;2023-12-29T02:34:47;36.20;;;19.90;;
57313;SDS011;53202;50.976;18.216;2023-12-29T02:35:50;28.90;;;18.80;;
57313;SDS011;53202;50.976;18.216;2023-12-29T02:36:53;34.90;;;17.70;;
57313;SDS011;53202;50.976;18.216;2023-12-29T02:37:54;24.50;;;15.60;;
57313;SDS011;53202;50.976;18.216;2023-12-29T02:38:56;27.10;;;15.40;;
57313;SDS011;53202;50.976;18.216;2023-12-29T02:39:58;32.10;;;16.30;;
57313;SDS011;53202;50.976;18.216;2023-12-29T02:40:59;23.20;;;14.40;;
57313;SDS011;53202;50.976;18.216;2023-12-29T02:42:00;24.50;;;14.70;;
57313;SDS011;53202;50.976;18.216;2023-12-29T02:43:01;30.20;;;16.60;;
57313;SDS011;53202;50.976;18.216;2023-12-29T02:44:03;28.40;;;16.10;;
57313;SDS011;53202;50.976;18.216;2023-12-29T02:45:04;25.90;;;14.70;;
57313;SDS011;53202;50.976;18.216;2023-12-29T02:46:05;23.00;;;14.80;;
57313;SDS011;53202;50.976;18.216;2023-12-29T02:47:06;21.90;;;14.30;;
57313;SDS011;53202;50.976;18.216;2023-12-29T02:48:07;23.10;;;14.60;;
57313;SDS011;53202;50.976;18.216;2023-12-29T02:49:09;27.70;;;15.20;;
57313;SDS011;53202;50.976;18.216;2023-12-29T02:50:13;22.70;;;14.00;;
57313;SDS011;53202;50.976;18.216;2023-12-29T02:51:14;22.00;;;14.60;;
57313;SDS011;53202;50.976;18.216;2023-12-29T02:52:15;23.00;;;13.70;;
57313;SDS011;53202;50.976;18.216;2023-12-29T02:53:16;25.40;;;14.10;;
57313;SDS011;53202;50.976;18.216;2023-12-29T02:54:17;26.60;;;15.70;;
57313;SDS011;53202;50.976;18.216;2023-12-29T02:55:18;22.60;;;14.20;;
57313;SDS011;53202;50.976;18.216;2023-12-29T02:56:19;23.20;;;15.00;;
57313;SDS011;53202;50.976;18.216;2023-12-29T02:57:20;21.40;;;14.30;;
57313;SDS011;53202;50.976;18.216;2023-12-29T02:58:21;23.30;;;13.50;;
57313;SDS011;53202;50.976;18.216;2023-12-29T02:59:22;21.80;;;12.70;;
57313;SDS011;53202;50.976;18.216;2023-12-29T03:00:23;24.80;;;13.80;;
57313;SDS011;53202;50.976;18.216;2023-12-29T03:01:24;27.00;;;13.70;;
57313;SDS011;53202;50.976;18.216;2023-12-29T03:02:24;26.70;;;13.10;;
57313;SDS011;53202;50.976;18.216;2023-12-29T03:03:26;22.20;;;13.10;;
57313;SDS011;53202;50.976;18.216;2023-12-29T03:04:26;23.20;;;13.40;;
57313;SDS011;53202;50.976;18.216;2023-12-29T03:05:27;23.10;;;13.90;;
57313;SDS011;53202;50.976;18.216;2023-12-29T03:06:29;32.70;;;13.60;;
57313;SDS011;53202;50.976;18.216;2023-12-29T03:07:29;24.40;;;14.00;;
57313;SDS011;53202;50.976;18.216;2023-12-29T03:08:30;20.70;;;13.90;;
57313;SDS011;53202;50.976;18.216;2023-12-29T03:09:31;19.30;;;13.20;;
57313;SDS011;53202;50.976;18.216;2023-12-29T03:10:33;21.50;;;13.80;;
57313;SDS011;53202;50.976;18.216;2023-12-29T03:11:34;23.50;;;13.80;;
57313;SDS011;53202;50.976;18.216;2023-12-29T03:12:34;21.10;;;14.00;;
57313;SDS011;53202;50.976;18.216;2023-12-29T03:13:36;22.60;;;14.70;;
57313;SDS011;53202;50.976;18.216;2023-12-29T03:14:37;29.60;;;15.50;;
57313;SDS011;53202;50.976;18.216;2023-12-29T03:15:37;23.90;;;14.40;;
57313;SDS011;53202;50.976;18.216;2023-12-29T03:16:38;25.40;;;16.10;;
57313;SDS011;53202;50.976;18.216;2023-12-29T03:17:39;26.60;;;14.90;;
57313;SDS011;53202;50.976;18.216;2023-12-29T03:18:40;29.40;;;14.50;;
57313;SDS011;53202;50.976;18.216;2023-12-29T03:19:42;24.60;;;15.20;;
57313;SDS011;53202;50.976;18.216;2023-12-29T03:20:43;21.80;;;14.60;;
57313;SDS011;53202;50.976;18.216;2023-12-29T03:21:44;26.20;;;16.00;;
57313;SDS011;53202;50.976;18.216;2023-12-29T03:22:45;27.60;;;16.90;;
57313;SDS011;53202;50.976;18.216;2023-12-29T03:23:46;23.80;;;15.80;;
57313;SDS011;53202;50.976;18.216;2023-12-29T03:24:47;25.90;;;15.50;;
57313;SDS011;53202;50.976;18.216;2023-12-29T03:25:48;25.90;;;16.30;;
57313;SDS011;53202;50.976;18.216;2023-12-29T03:26:49;32.70;;;16.40;;
57313;SDS011;53202;50.976;18.216;2023-12-29T03:27:50;28.10;;;15.70;;
57313;SDS011;53202;50.976;18.216;2023-12-29T03:28:51;28.30;;;17.10;;
57313;SDS011;53202;50.976;18.216;2023-12-29T03:29:52;27.30;;;16.70;;
57313;SDS011;53202;50.976;18.216;2023-12-29T03:30:53;34.40;;;16.90;;
57313;SDS011;53202;50.976;18.216;2023-12-29T03:31:54;27.20;;;15.80;;
57313;SDS011;53202;50.976;18.216;2023-12-29T03:32:55;27.50;;;15.10;;
57313;SDS011;53202;50.976;18.216;2023-12-29T03:33:56;30.20;;;16.70;;
57313;SDS011;53202;50.976;18.216;2023-12-29T03:34:57;24.70;;;15.30;;
57313;SDS011;53202;50.976;18.216;2023-12-29T03:35:58;22.60;;;13.70;;
57313;SDS011;53202;50.976;18.216;2023-12-29T03:36:59;27.30;;;15.00;;
57313;SDS011;53202;50.976;18.216;2023-12-29T03:38:00;24.70;;;15.30;;
57313;SDS011;53202;50.976;18.216;2023-12-29T03:39:01;23.80;;;15.60;;
57313;SDS011;53202;50.976;18.216;2023-12-29T03:40:03;26.60;;;14.40;;
57313;SDS011;53202;50.976;18.216;2023-12-29T03:41:04;25.20;;;14.60;;
57313;SDS011;53202;50.976;18.216;2023-12-29T03:42:05;22.80;;;14.70;;
57313;SDS011;53202;50.976;18.216;2023-12-29T03:43:06;26.30;;;14.40;;
57313;SDS011;53202;50.976;18.216;2023-12-29T03:44:08;27.20;;;15.80;;
57313;SDS011;53202;50.976;18.216;2023-12-29T03:45:09;21.50;;;13.70;;
57313;SDS011;53202;50.976;18.216;2023-12-29T03:47:26;24.40;;;15.60;;
57313;SDS011;53202;50.976;18.216;2023-12-29T03:48:27;24.70;;;14.70;;
57313;SDS011;53202;50.976;18.216;2023-12-29T03:49:28;23.70;;;14.70;;
57313;SDS011;53202;50.976;18.216;2023-12-29T03:50:29;23.80;;;14.60;;
57313;SDS011;53202;50.976;18.216;2023-12-29T03:51:30;18.60;;;14.00;;
57313;SDS011;53202;50.976;18.216;2023-12-29T03:52:31;20.90;;;13.90;;
57313;SDS011;53202;50.976;18.216;2023-12-29T03:53:32;22.50;;;14.40;;
57313;SDS011;53202;50.976;18.216;2023-12-29T03:54:33;23.60;;;14.60;;
57313;SDS011;53202;50.976;18.216;2023-12-29T03:55:34;22.10;;;13.20;;
57313;SDS011;53202;50.976;18.216;2023-12-29T03:56:35;20.30;;;13.60;;
57313;SDS011;53202;50.976;18.216;2023-12-29T03:57:36;26.40;;;15.50;;
57313;SDS011;53202;50.976;18.216;2023-12-29T03:58:37;22.90;;;14.20;;
57313;SDS011;53202;50.976;18.216;2023-12-29T03:59:37;23.00;;;14.70;;
57313;SDS011;53202;50.976;18.216;2023-12-29T04:00:39;21.00;;;14.10;;
57313;SDS011;53202;50.976;18.216;2023-12-29T04:01:41;24.00;;;14.60;;
57313;SDS011;53202;50.976;18.216;2023-12-29T04:02:43;19.00;;;13.90;;
57313;SDS011;53202;50.976;18.216;2023-12-29T04:03:44;22.30;;;14.40;;
57313;SDS011;53202;50.976;18.216;2023-12-29T04:04:45;23.70;;;14.90;;
57313;SDS011;53202;50.976;18.216;2023-12-29T04:05:46;19.40;;;13.40;;
57313;SDS011;53202;50.976;18.216;2023-12-29T04:06:47;28.90;;;14.70;;
57313;SDS011;53202;50.976;18.216;2023-12-29T04:07:48;27.90;;;16.50;;
57313;SDS011;53202;50.976;18.216;2023-12-29T04:08:49;20.90;;;13.60;;
57313;SDS011;53202;50.976;18.216;2023-12-29T04:09:50;21.30;;;14.80;;
57313;SDS011;53202;50.976;18.216;2023-12-29T04:10:51;23.60;;;15.00;;
57313;SDS011;53202;50.976;18.216;2023-12-29T04:11:51;22.90;;;14.30;;
57313;SDS011;53202;50.976;18.216;2023-12-29T04:12:52;21.80;;;15.00;;
57313;SDS011;53202;50.976;18.216;2023-12-29T04:13:53;25.50;;;14.40;;
57313;SDS011;53202;50.976;18.216;2023-12-29T04:14:54;27.10;;;15.40;;
57313;SDS011;53202;50.976;18.216;2023-12-29T04:15:56;21.80;;;15.30;;
57313;SDS011;53202;50.976;18.216;2023-12-29T04:16:57;21.70;;;14.90;;
57313;SDS011;53202;50.976;18.216;2023-12-29T04:17:58;22.10;;;14.30;;
57313;SDS011;53202;50.976;18.216;2023-12-29T04:18:59;20.80;;;13.10;;
57313;SDS011;53202;50.976;18.216;2023-12-29T04:20:00;21.50;;;15.30;;
57313;SDS011;53202;50.976;18.216;2023-12-29T04:21:01;22.50;;;14.20;;
57313;SDS011;53202;50.976;18.216;2023-12-29T04:22:02;23.40;;;13.50;;
57313;SDS011;53202;50.976;18.216;2023-12-29T04:23:04;18.80;;;12.40;;
57313;SDS011;53202;50.976;18.216;2023-12-29T04:24:06;23.50;;;13.50;;
57313;SDS011;53202;50.976;18.216;2023-12-29T04:25:07;19.00;;;11.90;;
57313;SDS011;53202;50.976;18.216;2023-12-29T04:26:08;22.20;;;13.20;;
57313;SDS011;53202;50.976;18.216;2023-12-29T04:27:09;21.40;;;12.60;;
57313;SDS011;53202;50.976;18.216;2023-12-29T04:28:10;19.80;;;12.10;;
57313;SDS011;53202;50.976;18.216;2023-12-29T04:29:11;21.00;;;13.30;;
57313;SDS011;53202;50.976;18.216;2023-12-29T04:30:12;20.50;;;13.20;;
57313;SDS011;53202;50.976;18.216;2023-12-29T04:31:13;19.20;;;13.10;;
57313;SDS011;53202;50.976;18.216;2023-12-29T04:32:14;22.90;;;13.20;;
57313;SDS011;53202;50.976;18.216;2023-12-29T04:33:15;18.80;;;12.50;;
57313;SDS011;53202;50.976;18.216;2023-12-29T04:34:16;23.40;;;14.40;;
57313;SDS011;53202;50.976;18.216;2023-12-29T04:35:17;20.90;;;12.60;;
57313;SDS011;53202;50.976;18.216;2023-12-29T04:36:18;19.50;;;13.10;;
57313;SDS011;53202;50.976;18.216;2023-12-29T04:37:19;21.30;;;13.40;;
57313;SDS011;53202;50.976;18.216;2023-12-29T04:38:20;21.70;;;13.90;;
57313;SDS011;53202;50.976;18.216;2023-12-29T04:39:21;22.40;;;13.00;;
57313;SDS011;53202;50.976;18.216;2023-12-29T04:40:23;17.10;;;12.20;;
57313;SDS011;53202;50.976;18.216;2023-12-29T04:41:24;21.70;;;13.10;;
57313;SDS011;53202;50.976;18.216;2023-12-29T04:42:25;23.70;;;13.20;;
57313;SDS011;53202;50.976;18.216;2023-12-29T04:43:26;20.40;;;12.70;;
57313;SDS011;53202;50.976;18.216;2023-12-29T04:44:27;19.90;;;12.90;;
57313;SDS011;53202;50.976;18.216;2023-12-29T04:45:30;19.80;;;13.60;;
57313;SDS011;53202;50.976;18.216;2023-12-29T04:46:31;16.10;;;11.40;;
57313;SDS011;53202;50.976;18.216;2023-12-29T04:47:31;23.40;;;12.80;;
57313;SDS011;53202;50.976;18.216;2023-12-29T04:48:33;18.70;;;12.60;;
57313;SDS011;53202;50.976;18.216;2023-12-29T04:49:34;19.80;;;13.80;;
57313;SDS011;53202;50.976;18.216;2023-12-29T04:50:34;27.60;;;16.70;;
57313;SDS011;53202;50.976;18.216;2023-12-29T04:51:35;28.00;;;18.50;;
57313;SDS011;53202;50.976;18.216;2023-12-29T04:52:37;27.50;;;19.40;;
57313;SDS011;53202;50.976;18.216;2023-12-29T04:53:38;34.90;;;22.60;;
57313;SDS011;53202;50.976;18.216;2023-12-29T04:54:39;40.20;;;25.10;;
57313;SDS011;53202;50.976;18.216;2023-12-29T04:55:40;41.10;;;23.80;;
57313;SDS011;53202;50.976;18.216;2023-12-29T04:56:41;46.40;;;25.40;;
57313;SDS011;53202;50.976;18.216;2023-12-29T04:57:42;39.30;;;23.20;;
57313;SDS011;53202;50.976;18.216;2023-12-29T04:58:43;46.50;;;24.00;;
57313;SDS011;53202;50.976;18.216;2023-12-29T04:59:44;48.80;;;26.20;;
57313;SDS011;53202;50.976;18.216;2023-12-29T05:00:45;57.00;;;28.30;;
57313;SDS011;53202;50.976;18.216;2023-12-29T05:01:46;48.30;;;27.10;;
57313;SDS011;53202;50.976;18.216;2023-12-29T05:02:47;48.90;;;23.80;;
57313;SDS011;53202;50.976;18.216;2023-12-29T05:03:48;33.90;;;19.00;;
57313;SDS011;53202;50.976;18.216;2023-12-29T05:04:49;29.80;;;18.20;;
57313;SDS011;53202;50.976;18.216;2023-12-29T05:05:50;30.50;;;15.70;;
57313;SDS011;53202;50.976;18.216;2023-12-29T05:06:51;22.00;;;15.30;;
57313;SDS011;53202;50.976;18.216;2023-12-29T05:07:52;24.50;;;13.30;;
57313;SDS011;53202;50.976;18.216;2023-12-29T05:08:53;22.30;;;13.50;;
57313;SDS011;53202;50.976;18.216;2023-12-29T05:09:54;19.00;;;12.30;;
57313;SDS011;53202;50.976;18.216;2023-12-29T05:10:55;21.30;;;14.20;;
57313;SDS011;53202;50.976;18.216;2023-12-29T05:11:56;24.80;;;14.00;;
57313;SDS011;53202;50.976;18.216;2023-12-29T05:12:57;26.00;;;16.00;;
57313;SDS011;53202;50.976;18.216;2023-12-29T05:13:58;37.70;;;19.90;;
57313;SDS011;53202;50.976;18.216;2023-12-29T05:14:59;39.00;;;20.10;;
57313;SDS011;53202;50.976;18.216;2023-12-29T05:15:59;29.30;;;15.80;;
57313;SDS011;53202;50.976;18.216;2023-12-29T05:17:00;34.40;;;18.80;;
57313;SDS011;53202;50.976;18.216;2023-12-29T05:18:01;41.90;;;21.40;;
57313;SDS011;53202;50.976;18.216;2023-12-29T05:19:02;40.00;;;19.80;;
57313;SDS011;53202;50.976;18.216;2023-12-29T05:20:03;81.50;;;32.70;;
57313;SDS011;53202;50.976;18.216;2023-12-29T05:21:05;73.00;;;27.60;;
57313;SDS011;53202;50.976;18.216;2023-12-29T05:22:06;105.90;;;35.50;;
57313;SDS011;53202;50.976;18.216;2023-12-29T05:23:07;93.30;;;32.60;;
57313;SDS011;53202;50.976;18.216;2023-12-29T05:24:08;64.40;;;25.60;;
57313;SDS011;53202;50.976;18.216;2023-12-29T05:25:09;61.70;;;25.80;;
57313;SDS011;53202;50.976;18.216;2023-12-29T05:26:10;39.50;;;18.60;;
57313;SDS011;53202;50.976;18.216;2023-12-29T05:27:11;55.20;;;23.20;;
57313;SDS011;53202;50.976;18.216;2023-12-29T05:28:12;53.90;;;22.00;;
57313;SDS011;53202;50.976;18.216;2023-12-29T05:29:13;27.20;;;14.60;;
57313;SDS011;53202;50.976;18.216;2023-12-29T05:30:14;25.50;;;14.10;;
57313;SDS011;53202;50.976;18.216;2023-12-29T05:31:16;17.90;;;12.20;;
57313;SDS011;53202;50.976;18.216;2023-12-29T05:32:17;18.20;;;11.90;;
57313;SDS011;53202;50.976;18.216;2023-12-29T05:33:18;20.10;;;13.10;;
57313;SDS011;53202;50.976;18.216;2023-12-29T05:34:19;23.30;;;12.70;;
57313;SDS011;53202;50.976;18.216;2023-12-29T05:35:20;18.00;;;12.40;;
57313;SDS011;53202;50.976;18.216;2023-12-29T05:36:21;17.70;;;12.80;;
57313;SDS011;53202;50.976;18.216;2023-12-29T05:37:22;19.80;;;12.00;;
57313;SDS011;53202;50.976;18.216;2023-12-29T05:38:24;19.30;;;13.30;;
57313;SDS011;53202;50.976;18.216;2023-12-29T05:39:25;23.20;;;13.80;;
57313;SDS011;53202;50.976;18.216;2023-12-29T05:40:26;17.00;;;11.70;;
57313;SDS011;53202;50.976;18.216;2023-12-29T05:41:27;24.60;;;16.40;;
57313;SDS011;53202;50.976;18.216;2023-12-29T05:42:28;20.40;;;14.50;;
57313;SDS011;53202;50.976;18.216;2023-12-29T05:43:29;19.50;;;14.10;;
57313;SDS011;53202;50.976;18.216;2023-12-29T05:44:35;23.40;;;14.40;;
57313;SDS011;53202;50.976;18.216;2023-12-29T05:45:36;19.50;;;14.10;;
57313;SDS011;53202;50.976;18.216;2023-12-29T05:46:37;28.50;;;12.90;;
57313;SDS011;53202;50.976;18.216;2023-12-29T05:47:38;19.20;;;14.90;;
57313;SDS011;53202;50.976;18.216;2023-12-29T05:48:39;19.60;;;14.30;;
57313;SDS011;53202;50.976;18.216;2023-12-29T05:49:41;21.50;;;14.90;;
57313;SDS011;53202;50.976;18.216;2023-12-29T05:50:42;24.80;;;16.00;;
57313;SDS011;53202;50.976;18.216;2023-12-29T05:51:44;22.50;;;14.90;;
57313;SDS011;53202;50.976;18.216;2023-12-29T05:52:45;20.40;;;15.80;;
57313;SDS011;53202;50.976;18.216;2023-12-29T05:53:50;26.60;;;16.80;;
57313;SDS011;53202;50.976;18.216;2023-12-29T05:54:51;23.20;;;15.80;;
57313;SDS011;53202;50.976;18.216;2023-12-29T05:55:51;26.00;;;16.80;;
57313;SDS011;53202;50.976;18.216;2023-12-29T05:56:52;25.50;;;16.50;;
57313;SDS011;53202;50.976;18.216;2023-12-29T05:57:53;32.00;;;17.90;;
57313;SDS011;53202;50.976;18.216;2023-12-29T05:58:55;25.00;;;16.90;;
57313;SDS011;53202;50.976;18.216;2023-12-29T05:59:56;29.10;;;17.40;;
57313;SDS011;53202;50.976;18.216;2023-12-29T06:00:57;30.10;;;17.70;;
57313;SDS011;53202;50.976;18.216;2023-12-29T06:02:01;26.10;;;16.30;;
57313;SDS011;53202;50.976;18.216;2023-12-29T06:03:02;25.00;;;15.40;;
57313;SDS011;53202;50.976;18.216;2023-12-29T06:04:04;26.70;;;17.00;;
57313;SDS011;53202;50.976;18.216;2023-12-29T06:05:05;26.50;;;16.70;;
57313;SDS011;53202;50.976;18.216;2023-12-29T06:06:06;26.70;;;16.90;;
57313;SDS011;53202;50.976;18.216;2023-12-29T06:07:07;47.30;;;18.10;;
57313;SDS011;53202;50.976;18.216;2023-12-29T06:08:08;26.20;;;15.40;;
57313;SDS011;53202;50.976;18.216;2023-12-29T06:09:10;25.80;;;15.70;;
57313;SDS011;53202;50.976;18.216;2023-12-29T06:10:10;20.80;;;14.40;;
57313;SDS011;53202;50.976;18.216;2023-12-29T06:11:15;25.00;;;15.70;;
57313;SDS011;53202;50.976;18.216;2023-12-29T06:12:16;25.50;;;15.30;;
57313;SDS011;53202;50.976;18.216;2023-12-29T06:13:18;27.30;;;16.10;;
57313;SDS011;53202;50.976;18.216;2023-12-29T06:14:18;29.70;;;16.40;;
57313;SDS011;53202;50.976;18.216;2023-12-29T06:15:20;28.60;;;17.10;;
57313;SDS011;53202;50.976;18.216;2023-12-29T06:16:22;28.90;;;16.20;;
57313;SDS011;53202;50.976;18.216;2023-12-29T06:17:25;24.40;;;16.80;;
57313;SDS011;53202;50.976;18.216;2023-12-29T06:18:26;29.30;;;17.20;;
57313;SDS011;53202;50.976;18.216;2023-12-29T06:19:28;32.40;;;17.00;;
57313;SDS011;53202;50.976;18.216;2023-12-29T06:20:28;24.80;;;17.60;;
57313;SDS011;53202;50.976;18.216;2023-12-29T06:21:30;31.00;;;19.20;;
57313;SDS011;53202;50.976;18.216;2023-12-29T06:22:31;34.00;;;22.50;;
57313;SDS011;53202;50.976;18.216;2023-12-29T06:23:32;36.20;;;22.70;;
57313;SDS011;53202;50.976;18.216;2023-12-29T06:24:33;39.50;;;24.90;;
57313;SDS011;53202;50.976;18.216;2023-12-29T06:25:34;36.10;;;21.50;;
57313;SDS011;53202;50.976;18.216;2023-12-29T06:26:35;44.30;;;26.40;;
57313;SDS011;53202;50.976;18.216;2023-12-29T06:27:42;43.00;;;30.70;;
57313;SDS011;53202;50.976;18.216;2023-12-29T06:28:43;45.90;;;31.90;;
57313;SDS011;53202;50.976;18.216;2023-12-29T06:29:45;58.20;;;44.50;;
57313;SDS011;53202;50.976;18.216;2023-12-29T06:30:46;44.90;;;36.30;;
57313;SDS011;53202;50.976;18.216;2023-12-29T06:31:46;48.70;;;43.00;;
57313;SDS011;53202;50.976;18.216;2023-12-29T06:32:47;51.90;;;42.90;;
57313;SDS011;53202;50.976;18.216;2023-12-29T06:33:49;56.70;;;43.10;;
57313;SDS011;53202;50.976;18.216;2023-12-29T06:34:50;45.30;;;35.70;;
57313;SDS011;53202;50.976;18.216;2023-12-29T06:35:51;38.90;;;31.00;;
57313;SDS011;53202;50.976;18.216;2023-12-29T06:36:52;29.90;;;23.70;;
57313;SDS011;53202;50.976;18.216;2023-12-29T06:37:53;30.10;;;20.10;;
57313;SDS011;53202;50.976;18.216;2023-12-29T06:38:54;38.00;;;24.30;;
57313;SDS011;53202;50.976;18.216;2023-12-29T06:39:56;31.00;;;21.80;;
57313;SDS011;53202;50.976;18.216;2023-12-29T06:40:57;31.90;;;22.70;;
57313;SDS011;53202;50.976;18.216;2023-12-29T06:41:58;31.70;;;20.30;;
57313;SDS011;53202;50.976;18.216;2023-12-29T06:42:59;27.10;;;19.50;;
57313;SDS011;53202;50.976;18.216;2023-12-29T06:44:00;30.10;;;20.90;;
57313;SDS011;53202;50.976;18.216;2023-12-29T06:45:01;26.40;;;18.90;;
57313;SDS011;53202;50.976;18.216;2023-12-29T06:46:02;27.70;;;19.30;;